Hatsu Eagle — ZNZH6 — position and weather

sailwx.info

Track history (hours):
 
Tides and Currents Weather Stations Pressure Air Temp Water Temp Dewpoint Dewpoint Depression Visibility Wind Speed Wind Dir Waves Ship Positions

Hatsu Eagle

Last reported at 2018-Jan-18 05:54 UTC. Time now 2018-Jan-20 07:24 UTC.
Position N 23°57' E 118°07'.

Type: Cargo ship. MMSI: 235335000.

Date/timePositionNaut miles runAvg speedWind from/ knotsBaromVisibWave heightAir tempDewpointWater temp
2018-Jan-18 05:54N 23°57' E 118°07'614.6
2018-Jan-18 05:29N 24°02' E 118°10'714.3
2018-Jan-18 05:01N 24°07' E 118°15'612.7
2018-Jan-18 04:30N 24°13' E 118°17'611.8
2018-Jan-18 04:00N 24°18' E 118°13'611.6
2018-Jan-18 03:30N 24°22' E 118°08'510.6
2018-Jan-18 03:00N 24°25' E 118°04'4 6.9
2018-Jan-18 02:30N 24°27' E 118°00'0 0.1
2018-Jan-18 01:59N 24°27' E 118°00'0 0.1
2018-Jan-18 01:30N 24°27' E 118°00'0 0.1
2018-Jan-18 01:00N 24°27' E 118°00'0 0.0
2018-Jan-18 00:00N 24°27' E 118°00'0 0.0
2018-Jan-17 23:57N 24°27' E 118°00'  
2018-Jan-12 03:47N 41°19' E 140°11'412.1
2018-Jan-12 03:29N 41°21' E 140°15'611.9
2018-Jan-12 03:00N 41°24' E 140°21'713.5
2018-Jan-12 02:31N 41°28' E 140°28'611.3
2018-Jan-12 02:00N 41°31' E 140°35'713.4
2018-Jan-12 01:29N 41°34' E 140°43'613.0
2018-Jan-12 01:00N 41°37' E 140°50'612.1
2018-Jan-12 00:30N 41°38' E 140°58'611.2
2018-Jan-11 23:59N 41°39' E 141°06'613.3
2018-Jan-11 23:30N 41°39' E 141°14'713.4
2018-Jan-11 23:00N 41°40' E 141°23'611.8
2018-Jan-11 22:30N 41°39' E 141°31'611.8
2018-Jan-11 22:00N 41°39' E 141°39'811.8
2018-Jan-11 21:17N 41°39' E 141°50'  
Track history (hours):
 
Tides and Currents Weather Stations Pressure Air Temp Water Temp Dewpoint Dewpoint Depression Visibility Wind Speed Wind Dir Waves Ship Positions

Hatsu Eagle

Last reported at 2018-Jan-18 05:54 UTC. Time now 2018-Jan-20 07:24 UTC.
Position N 23°57' E 118°07'.

Type: Cargo ship. MMSI: 235335000.

Date/timePositionNaut miles runAvg speedWind from/ knotsBaromVisibWave heightAir tempDewpointWater temp
2018-Jan-18 05:54N 23°57' E 118°07'614.6
2018-Jan-18 05:29N 24°02' E 118°10'714.3
2018-Jan-18 05:01N 24°07' E 118°15'612.7
2018-Jan-18 04:30N 24°13' E 118°17'611.8
2018-Jan-18 04:00N 24°18' E 118°13'611.6
2018-Jan-18 03:30N 24°22' E 118°08'510.6
2018-Jan-18 03:00N 24°25' E 118°04'4 6.9
2018-Jan-18 02:30N 24°27' E 118°00'0 0.1
2018-Jan-18 01:59N 24°27' E 118°00'0 0.1
2018-Jan-18 01:30N 24°27' E 118°00'0 0.1
2018-Jan-18 01:00N 24°27' E 118°00'0 0.0
2018-Jan-18 00:00N 24°27' E 118°00'0 0.0
2018-Jan-17 23:57N 24°27' E 118°00'  
2018-Jan-12 03:47N 41°19' E 140°11'412.1
2018-Jan-12 03:29N 41°21' E 140°15'611.9
2018-Jan-12 03:00N 41°24' E 140°21'713.5
2018-Jan-12 02:31N 41°28' E 140°28'611.3
2018-Jan-12 02:00N 41°31' E 140°35'713.4
2018-Jan-12 01:29N 41°34' E 140°43'613.0
2018-Jan-12 01:00N 41°37' E 140°50'612.1
2018-Jan-12 00:30N 41°38' E 140°58'611.2
2018-Jan-11 23:59N 41°39' E 141°06'613.3
2018-Jan-11 23:30N 41°39' E 141°14'713.4
2018-Jan-11 23:00N 41°40' E 141°23'611.8
2018-Jan-11 22:30N 41°39' E 141°31'611.8
2018-Jan-11 22:00N 41°39' E 141°39'811.8
2018-Jan-11 21:17N 41°39' E 141°50'  

Dump ship's entire track history